sensor_id;sensor_type;location;lat;lon;timestamp;pressure;altitude;pressure_sealevel;temperature;humidity
43934;BME280;59081;42.706;23.306;2023-02-18T00:01:25;95938.47;;;1.87;68.08
43934;BME280;59081;42.706;23.306;2023-02-18T00:03:56;95826.66;;;0.93;68.80
43934;BME280;59081;42.706;23.306;2023-02-18T00:06:29;95933.50;;;1.69;68.73
43934;BME280;59081;42.706;23.306;2023-02-18T00:08:55;95922.75;;;1.77;68.10
43934;BME280;59081;42.706;23.306;2023-02-18T00:11:37;95861.28;;;1.23;69.07
43934;BME280;59081;42.706;23.306;2023-02-18T00:14:05;95885.78;;;1.68;67.67
43934;BME280;59081;42.706;23.306;2023-02-18T00:16:34;95888.09;;;1.47;68.89
43934;BME280;59081;42.706;23.306;2023-02-18T00:19:07;96004.81;;;2.08;69.40
43934;BME280;59081;42.706;23.306;2023-02-18T00:21:34;95947.81;;;1.66;69.88
43934;BME280;59081;42.706;23.306;2023-02-18T00:24:08;95970.44;;;1.74;70.59
43934;BME280;59081;42.706;23.306;2023-02-18T00:26:34;95977.38;;;1.94;70.36
43934;BME280;59081;42.706;23.306;2023-02-18T00:29:23;95987.34;;;2.09;69.85
43934;BME280;59081;42.706;23.306;2023-02-18T00:31:49;95886.19;;;1.70;68.46
43934;BME280;59081;42.706;23.306;2023-02-18T00:34:21;95926.56;;;1.72;69.52
43934;BME280;59081;42.706;23.306;2023-02-18T00:36:50;95862.03;;;1.20;70.10
43934;BME280;59081;42.706;23.306;2023-02-18T00:39:21;95784.88;;;0.56;71.50
43934;BME280;59081;42.706;23.306;2023-02-18T00:41:52;95830.66;;;0.99;70.61
43934;BME280;59081;42.706;23.306;2023-02-18T00:44:23;95812.91;;;0.83;71.20
43934;BME280;59081;42.706;23.306;2023-02-18T00:46:52;95842.38;;;1.26;71.18
43934;BME280;59081;42.706;23.306;2023-02-18T00:49:21;95828.91;;;1.11;70.16
43934;BME280;59081;42.706;23.306;2023-02-18T00:51:46;95828.16;;;0.91;71.37
43934;BME280;59081;42.706;23.306;2023-02-18T00:54:14;95924.47;;;1.43;72.00
43934;BME280;59081;42.706;23.306;2023-02-18T00:56:43;95902.44;;;1.25;73.01
43934;BME280;59081;42.706;23.306;2023-02-18T00:59:08;95815.97;;;0.62;72.99
43934;BME280;59081;42.706;23.306;2023-02-18T01:01:38;95937.00;;;1.70;71.76
43934;BME280;59081;42.706;23.306;2023-02-18T01:04:14;95772.09;;;0.56;71.24
43934;BME280;59081;42.706;23.306;2023-02-18T01:06:41;95907.72;;;1.37;71.77
43934;BME280;59081;42.706;23.306;2023-02-18T01:09:09;95875.75;;;1.08;71.74
43934;BME280;59081;42.706;23.306;2023-02-18T01:11:46;95916.34;;;1.23;72.18
43934;BME280;59081;42.706;23.306;2023-02-18T01:14:14;95962.72;;;1.34;72.96
43934;BME280;59081;42.706;23.306;2023-02-18T01:17:07;95851.31;;;1.08;71.25
43934;BME280;59081;42.706;23.306;2023-02-18T01:19:42;95883.81;;;1.46;69.95
43934;BME280;59081;42.706;23.306;2023-02-18T01:22:07;95958.25;;;1.64;71.29
43934;BME280;59081;42.706;23.306;2023-02-18T01:24:33;95850.19;;;0.89;71.46
43934;BME280;59081;42.706;23.306;2023-02-18T01:27:03;95770.84;;;0.31;72.44
43934;BME280;59081;42.706;23.306;2023-02-18T01:29:31;95955.44;;;1.38;73.41
43934;BME280;59081;42.706;23.306;2023-02-18T01:31:59;95827.72;;;0.69;73.65
43934;BME280;59081;42.706;23.306;2023-02-18T01:34:27;95805.84;;;0.78;72.11
43934;BME280;59081;42.706;23.306;2023-02-18T01:36:54;95953.88;;;1.37;73.59
43934;BME280;59081;42.706;23.306;2023-02-18T01:39:22;95954.25;;;1.39;73.55
43934;BME280;59081;42.706;23.306;2023-02-18T01:41:51;95896.38;;;0.93;73.91
43934;BME280;59081;42.706;23.306;2023-02-18T01:44:29;95814.84;;;0.44;73.85
43934;BME280;59081;42.706;23.306;2023-02-18T01:46:55;95792.22;;;0.17;73.96
43934;BME280;59081;42.706;23.306;2023-02-18T01:49:35;95768.97;;;0.35;73.59
43934;BME280;59081;42.706;23.306;2023-02-18T01:52:05;95975.06;;;1.51;73.06
43934;BME280;59081;42.706;23.306;2023-02-18T01:54:44;95834.94;;;0.43;73.56
43934;BME280;59081;42.706;23.306;2023-02-18T01:57:35;95793.78;;;0.18;73.57
43934;BME280;59081;42.706;23.306;2023-02-18T02:00:14;95852.28;;;0.57;74.16
43934;BME280;59081;42.706;23.306;2023-02-18T02:02:52;95779.72;;;-0.07;75.22
43934;BME280;59081;42.706;23.306;2023-02-18T02:05:21;95825.88;;;0.74;74.17
43934;BME280;59081;42.706;23.306;2023-02-18T02:07:52;95817.53;;;0.44;73.93
43934;BME280;59081;42.706;23.306;2023-02-18T02:16:25;95903.19;;;1.02;74.04
43934;BME280;59081;42.706;23.306;2023-02-18T02:19:28;95962.28;;;1.51;73.54
43934;BME280;59081;42.706;23.306;2023-02-18T02:51:14;95814.56;;;0.29;74.77
43934;BME280;59081;42.706;23.306;2023-02-18T02:53:49;95870.97;;;0.43;75.73
43934;BME280;59081;42.706;23.306;2023-02-18T02:56:34;95816.22;;;-0.17;76.89
43934;BME280;59081;42.706;23.306;2023-02-18T02:59:17;95818.59;;;-0.15;76.80
43934;BME280;59081;42.706;23.306;2023-02-18T03:10:25;95888.38;;;0.42;77.39
43934;BME280;59081;42.706;23.306;2023-02-18T03:16:34;95793.22;;;-0.26;77.75
43934;BME280;59081;42.706;23.306;2023-02-18T03:22:07;95899.19;;;0.07;78.43
43934;BME280;59081;42.706;23.306;2023-02-18T03:24:50;95894.34;;;-0.03;78.34
43934;BME280;59081;42.706;23.306;2023-02-18T03:27:21;95944.63;;;0.29;77.67
43934;BME280;59081;42.706;23.306;2023-02-18T03:30:06;95842.63;;;-0.29;76.43
43934;BME280;59081;42.706;23.306;2023-02-18T03:32:55;95961.75;;;0.33;77.09
43934;BME280;59081;42.706;23.306;2023-02-18T03:35:39;95854.69;;;-0.43;77.40
43934;BME280;59081;42.706;23.306;2023-02-18T03:38:22;95892.94;;;-0.28;77.68
43934;BME280;59081;42.706;23.306;2023-02-18T03:41:00;95816.81;;;-0.74;77.80
43934;BME280;59081;42.706;23.306;2023-02-18T03:43:34;95865.69;;;-0.51;78.02
43934;BME280;59081;42.706;23.306;2023-02-18T03:46:08;95994.78;;;0.23;78.45
43934;BME280;59081;42.706;23.306;2023-02-18T03:48:42;95809.53;;;-1.01;78.85
43934;BME280;59081;42.706;23.306;2023-02-18T03:51:13;95904.22;;;-0.42;78.95
43934;BME280;59081;42.706;23.306;2023-02-18T03:53:50;95857.31;;;-0.62;79.06
43934;BME280;59081;42.706;23.306;2023-02-18T03:56:24;95971.97;;;0.24;78.32
43934;BME280;59081;42.706;23.306;2023-02-18T03:58:55;96015.91;;;0.65;77.61
43934;BME280;59081;42.706;23.306;2023-02-18T04:04:48;95990.06;;;0.52;79.02
43934;BME280;59081;42.706;23.306;2023-02-18T04:07:19;95887.34;;;-0.04;78.49
43934;BME280;59081;42.706;23.306;2023-02-18T04:10:03;95847.16;;;-0.33;77.83
43934;BME280;59081;42.706;23.306;2023-02-18T04:12:56;95854.06;;;-0.20;77.64
43934;BME280;59081;42.706;23.306;2023-02-18T04:15:38;96004.28;;;0.64;78.14
43934;BME280;59081;42.706;23.306;2023-02-18T04:18:14;95938.31;;;0.25;78.97
43934;BME280;59081;42.706;23.306;2023-02-18T04:20:42;95817.50;;;-0.46;78.93
43934;BME280;59081;42.706;23.306;2023-02-18T04:23:15;95944.63;;;0.29;78.74
43934;BME280;59081;42.706;23.306;2023-02-18T04:25:46;95821.59;;;-0.52;79.15
43934;BME280;59081;42.706;23.306;2023-02-18T04:28:13;95835.06;;;-0.40;79.80
43934;BME280;59081;42.706;23.306;2023-02-18T04:30:46;95969.31;;;0.44;79.90
43934;BME280;59081;42.706;23.306;2023-02-18T04:33:13;95982.31;;;0.54;79.20
43934;BME280;59081;42.706;23.306;2023-02-18T04:35:43;95912.03;;;0.10;79.17
43934;BME280;59081;42.706;23.306;2023-02-18T04:38:17;95930.91;;;0.07;80.03
43934;BME280;59081;42.706;23.306;2023-02-18T04:40:45;95877.56;;;-0.24;80.27
43934;BME280;59081;42.706;23.306;2023-02-18T04:43:32;95804.34;;;-0.79;80.83
43934;BME280;59081;42.706;23.306;2023-02-18T04:46:12;95985.25;;;0.45;80.35
43934;BME280;59081;42.706;23.306;2023-02-18T04:48:41;95848.59;;;-0.55;80.68
43934;BME280;59081;42.706;23.306;2023-02-18T04:51:21;95901.41;;;-0.14;80.88
43934;BME280;59081;42.706;23.306;2023-02-18T04:53:52;95880.09;;;-0.31;80.27
43934;BME280;59081;42.706;23.306;2023-02-18T04:56:25;95931.44;;;0.12;80.24
43934;BME280;59081;42.706;23.306;2023-02-18T04:59:05;95860.28;;;-0.36;79.69
43934;BME280;59081;42.706;23.306;2023-02-18T05:01:31;96003.44;;;0.45;80.61
43934;BME280;59081;42.706;23.306;2023-02-18T05:04:24;96014.97;;;0.42;80.77
43934;BME280;59081;42.706;23.306;2023-02-18T05:09:51;95926.38;;;-0.05;80.72
43934;BME280;59081;42.706;23.306;2023-02-18T05:12:28;95985.25;;;0.45;79.64
43934;BME280;59081;42.706;23.306;2023-02-18T05:14:54;95857.06;;;-0.41;79.62
43934;BME280;59081;42.706;23.306;2023-02-18T05:17:39;95997.03;;;0.53;79.48
43934;BME280;59081;42.706;23.306;2023-02-18T05:20:07;95885.50;;;0.00;79.27
43934;BME280;59081;42.706;23.306;2023-02-18T05:22:39;95930.56;;;0.59;78.25
43934;BME280;59081;42.706;23.306;2023-02-18T05:25:08;95798.28;;;-0.25;77.52
43934;BME280;59081;42.706;23.306;2023-02-18T05:27:47;95964.84;;;0.67;77.98
43934;BME280;59081;42.706;23.306;2023-02-18T05:30:13;95934.97;;;0.48;78.57
43934;BME280;59081;42.706;23.306;2023-02-18T05:32:39;95939.50;;;0.44;78.60
43934;BME280;59081;42.706;23.306;2023-02-18T05:35:07;95916.13;;;0.55;78.17
43934;BME280;59081;42.706;23.306;2023-02-18T05:37:39;95804.22;;;-0.19;78.04
43934;BME280;59081;42.706;23.306;2023-02-18T05:40:09;95909.09;;;0.50;78.06
43934;BME280;59081;42.706;23.306;2023-02-18T05:42:35;95852.09;;;0.12;78.25
43934;BME280;59081;42.706;23.306;2023-02-18T05:45:08;95899.00;;;0.70;77.74
43934;BME280;59081;42.706;23.306;2023-02-18T05:47:34;95856.75;;;0.30;76.97
43934;BME280;59081;42.706;23.306;2023-02-18T05:50:02;95899.06;;;0.54;77.73
43934;BME280;59081;42.706;23.306;2023-02-18T05:52:28;95891.44;;;0.41;77.71
43934;BME280;59081;42.706;23.306;2023-02-18T05:55:00;95876.00;;;0.25;77.88
43934;BME280;59081;42.706;23.306;2023-02-18T05:57:34;95809.53;;;-0.23;78.20
43934;BME280;59081;42.706;23.306;2023-02-18T06:00:12;95916.25;;;0.43;78.57
43934;BME280;59081;42.706;23.306;2023-02-18T06:02:42;96006.84;;;1.12;78.27
43934;BME280;59081;42.706;23.306;2023-02-18T06:05:08;95870.34;;;0.69;77.51
43934;BME280;59081;42.706;23.306;2023-02-18T06:07:34;95812.84;;;0.60;74.89
43934;BME280;59081;42.706;23.306;2023-02-18T06:10:08;95813.13;;;0.55;74.84
43934;BME280;59081;42.706;23.306;2023-02-18T06:12:40;95858.13;;;0.59;75.81
43934;BME280;59081;42.706;23.306;2023-02-18T06:15:06;96009.34;;;1.59;75.38
43934;BME280;59081;42.706;23.306;2023-02-18T06:17:34;95873.44;;;0.67;75.78
43934;BME280;59081;42.706;23.306;2023-02-18T06:20:01;95863.28;;;0.64;76.33
43934;BME280;59081;42.706;23.306;2023-02-18T06:22:29;95904.03;;;0.87;76.22
43934;BME280;59081;42.706;23.306;2023-02-18T06:25:08;95816.44;;;0.87;74.01
43934;BME280;59081;42.706;23.306;2023-02-18T06:27:37;95821.22;;;0.93;73.25
43934;BME280;59081;42.706;23.306;2023-02-18T06:30:03;95911.72;;;1.66;73.04
43934;BME280;59081;42.706;23.306;2023-02-18T06:32:32;95972.25;;;2.12;72.65
43934;BME280;59081;42.706;23.306;2023-02-18T06:34:58;95890.03;;;1.47;73.34
43934;BME280;59081;42.706;23.306;2023-02-18T06:37:24;95809.22;;;0.94;73.59
43934;BME280;59081;42.706;23.306;2023-02-18T06:40:01;95878.25;;;1.39;73.56
43934;BME280;59081;42.706;23.306;2023-02-18T06:42:29;95869.41;;;1.42;73.20
43934;BME280;59081;42.706;23.306;2023-02-18T06:45:00;95814.03;;;1.47;72.02
43934;BME280;59081;42.706;23.306;2023-02-18T06:47:29;95953.88;;;2.28;71.59
43934;BME280;59081;42.706;23.306;2023-02-18T06:49:57;95829.88;;;1.45;71.39
43934;BME280;59081;42.706;23.306;2023-02-18T06:52:26;95927.56;;;2.09;71.67
43934;BME280;59081;42.706;23.306;2023-02-18T06:55:00;95881.94;;;1.96;71.55
43934;BME280;59081;42.706;23.306;2023-02-18T06:57:28;95834.59;;;1.48;71.52
43934;BME280;59081;42.706;23.306;2023-02-18T06:59:57;96000.13;;;2.55;71.63
43934;BME280;59081;42.706;23.306;2023-02-18T07:02:28;95967.94;;;2.87;71.15
43934;BME280;59081;42.706;23.306;2023-02-18T07:04:54;95927.56;;;2.59;69.36
43934;BME280;59081;42.706;23.306;2023-02-18T07:07:19;95883.91;;;2.25;69.03
43934;BME280;59081;42.706;23.306;2023-02-18T07:09:48;95953.16;;;2.84;68.95
43934;BME280;59081;42.706;23.306;2023-02-18T07:12:50;95870.44;;;2.32;69.29
43934;BME280;59081;42.706;23.306;2023-02-18T07:15:21;95979.56;;;3.10;68.75
43934;BME280;59081;42.706;23.306;2023-02-18T07:17:57;95786.53;;;2.01;68.76
43934;BME280;59081;42.706;23.306;2023-02-18T07:20:23;95841.78;;;2.68;67.04
43934;BME280;59081;42.706;23.306;2023-02-18T07:22:55;95973.97;;;3.33;67.17
43934;BME280;59081;42.706;23.306;2023-02-18T07:25:21;95917.38;;;3.15;67.08
43934;BME280;59081;42.706;23.306;2023-02-18T07:27:50;95862.19;;;2.85;66.72
43934;BME280;59081;42.706;23.306;2023-02-18T07:30:17;95977.41;;;3.60;66.77
43934;BME280;59081;42.706;23.306;2023-02-18T07:32:45;95941.41;;;3.40;66.68
43934;BME280;59081;42.706;23.306;2023-02-18T07:35:14;95839.91;;;3.06;65.97
43934;BME280;59081;42.706;23.306;2023-02-18T07:37:46;95911.16;;;3.52;65.16
43934;BME280;59081;42.706;23.306;2023-02-18T07:40:15;95897.41;;;3.38;64.92
43934;BME280;59081;42.706;23.306;2023-02-18T07:42:52;95885.03;;;3.44;64.94
43934;BME280;59081;42.706;23.306;2023-02-18T07:45:18;96000.53;;;4.10;64.86
43934;BME280;59081;42.706;23.306;2023-02-18T07:47:44;95923.03;;;3.70;64.45
43934;BME280;59081;42.706;23.306;2023-02-18T07:50:15;95993.19;;;4.69;63.83
43934;BME280;59081;42.706;23.306;2023-02-18T07:52:41;95935.22;;;4.28;61.99
43934;BME280;59081;42.706;23.306;2023-02-18T07:55:07;95974.00;;;4.54;63.78
43934;BME280;59081;42.706;23.306;2023-02-18T07:57:32;95926.59;;;4.22;62.50
43934;BME280;59081;42.706;23.306;2023-02-18T08:00:18;95885.91;;;3.96;62.29
43934;BME280;59081;42.706;23.306;2023-02-18T08:02:44;95961.09;;;4.48;62.58
43934;BME280;59081;42.706;23.306;2023-02-18T08:05:12;95822.97;;;4.22;61.53
43934;BME280;59081;42.706;23.306;2023-02-18T08:07:40;95845.75;;;4.54;59.72
43934;BME280;59081;42.706;23.306;2023-02-18T08:10:06;95857.13;;;4.64;59.51
43934;BME280;59081;42.706;23.306;2023-02-18T08:12:37;95934.66;;;5.39;58.73
43934;BME280;59081;42.706;23.306;2023-02-18T08:15:03;95807.97;;;4.57;58.80
43934;BME280;59081;42.706;23.306;2023-02-18T08:17:29;95872.13;;;5.05;59.27
43934;BME280;59081;42.706;23.306;2023-02-18T08:20:00;95925.84;;;5.91;58.03
43934;BME280;59081;42.706;23.306;2023-02-18T08:22:28;95848.47;;;5.77;56.44
43934;BME280;59081;42.706;23.306;2023-02-18T08:24:57;95835.97;;;5.79;56.15
43934;BME280;59081;42.706;23.306;2023-02-18T08:27:23;95857.50;;;5.91;56.13
43934;BME280;59081;42.706;23.306;2023-02-18T08:29:48;95781.69;;;5.56;56.09
43934;BME280;59081;42.706;23.306;2023-02-18T08:32:14;95953.19;;;6.94;55.59
43934;BME280;59081;42.706;23.306;2023-02-18T08:34:40;95840.69;;;6.39;55.35
43934;BME280;59081;42.706;23.306;2023-02-18T08:37:05;95941.03;;;7.03;54.46
43934;BME280;59081;42.706;23.306;2023-02-18T08:39:35;95909.41;;;6.84;54.26
43934;BME280;59081;42.706;23.306;2023-02-18T08:42:01;95948.06;;;7.14;54.59
43934;BME280;59081;42.706;23.306;2023-02-18T08:44:26;95959.00;;;7.14;54.34
43934;BME280;59081;42.706;23.306;2023-02-18T08:46:55;95869.50;;;6.83;54.00
43934;BME280;59081;42.706;23.306;2023-02-18T08:49:21;95848.72;;;6.96;53.36
43934;BME280;59081;42.706;23.306;2023-02-18T08:51:51;95908.28;;;7.65;51.45
43934;BME280;59081;42.706;23.306;2023-02-18T08:54:17;95852.44;;;7.38;50.59
43934;BME280;59081;42.706;23.306;2023-02-18T08:56:43;95854.38;;;7.44;50.18
43934;BME280;59081;42.706;23.306;2023-02-18T08:59:09;95849.66;;;7.45;49.85
43934;BME280;59081;42.706;23.306;2023-02-18T09:01:37;95899.16;;;7.86;49.26
43934;BME280;59081;42.706;23.306;2023-02-18T09:04:02;95956.19;;;8.71;48.53
43934;BME280;59081;42.706;23.306;2023-02-18T09:06:28;95903.84;;;8.48;46.98
43934;BME280;59081;42.706;23.306;2023-02-18T09:08:54;95832.13;;;7.90;47.31
43934;BME280;59081;42.706;23.306;2023-02-18T09:11:20;95890.31;;;8.16;47.80
43934;BME280;59081;42.706;23.306;2023-02-18T09:13:46;95915.78;;;8.68;47.13
43934;BME280;59081;42.706;23.306;2023-02-18T09:16:16;95851.84;;;8.67;45.67
43934;BME280;59081;42.706;23.306;2023-02-18T09:18:46;95843.91;;;8.35;46.13
43934;BME280;59081;42.706;23.306;2023-02-18T09:21:13;95964.03;;;9.14;46.42
43934;BME280;59081;42.706;23.306;2023-02-18T09:23:40;95860.38;;;8.77;46.39
43934;BME280;59081;42.706;23.306;2023-02-18T09:26:08;95922.44;;;9.72;44.72
43934;BME280;59081;42.706;23.306;2023-02-18T09:28:34;95851.75;;;9.42;44.51
43934;BME280;59081;42.706;23.306;2023-02-18T09:31:15;95867.91;;;9.67;44.17
43934;BME280;59081;42.706;23.306;2023-02-18T09:33:46;95849.97;;;10.09;42.86
43934;BME280;59081;42.706;23.306;2023-02-18T09:36:12;95844.38;;;10.17;41.88
43934;BME280;59081;42.706;23.306;2023-02-18T09:38:38;95821.19;;;9.64;42.79
43934;BME280;59081;42.706;23.306;2023-02-18T09:41:06;95888.88;;;10.38;42.09
43934;BME280;59081;42.706;23.306;2023-02-18T09:43:37;95827.72;;;10.70;41.11
43934;BME280;59081;42.706;23.306;2023-02-18T09:46:24;95909.59;;;11.92;39.05
43934;BME280;59081;42.706;23.306;2023-02-18T09:48:51;95846.97;;;11.13;39.85
43934;BME280;59081;42.706;23.306;2023-02-18T09:51:18;95825.13;;;10.83;40.34
43934;BME280;59081;42.706;23.306;2023-02-18T09:53:45;95832.81;;;11.31;39.41
43934;BME280;59081;42.706;23.306;2023-02-18T09:56:13;95873.03;;;12.04;38.26
43934;BME280;59081;42.706;23.306;2023-02-18T09:58:40;95893.22;;;12.01;38.45
43934;BME280;59081;42.706;23.306;2023-02-18T10:01:36;95819.78;;;11.68;38.61
43934;BME280;59081;42.706;23.306;2023-02-18T10:04:27;95801.81;;;11.79;38.30
43934;BME280;59081;42.706;23.306;2023-02-18T10:06:52;95887.00;;;13.23;36.00
43934;BME280;59081;42.706;23.306;2023-02-18T10:09:29;95813.19;;;12.92;34.71
43934;BME280;59081;42.706;23.306;2023-02-18T10:12:13;95815.00;;;13.27;33.33
43934;BME280;59081;42.706;23.306;2023-02-18T10:14:39;95767.19;;;13.52;32.58
43934;BME280;59081;42.706;23.306;2023-02-18T10:17:06;95832.06;;;14.65;31.07
43934;BME280;59081;42.706;23.306;2023-02-18T10:19:36;95742.59;;;14.52;30.17
43934;BME280;59081;42.706;23.306;2023-02-18T10:22:04;95830.00;;;15.13;30.48
43934;BME280;59081;42.706;23.306;2023-02-18T10:24:37;95741.06;;;14.51;30.18
43934;BME280;59081;42.706;23.306;2023-02-18T10:27:06;95789.94;;;15.66;29.26
43934;BME280;59081;42.706;23.306;2023-02-18T10:29:32;95867.53;;;16.72;27.82
43934;BME280;59081;42.706;23.306;2023-02-18T10:35:18;95861.00;;;16.08;27.18
43934;BME280;59081;42.706;23.306;2023-02-18T10:37:56;95859.97;;;16.32;26.64
43934;BME280;59081;42.706;23.306;2023-02-18T10:43:32;95839.91;;;15.88;27.63
43934;BME280;59081;42.706;23.306;2023-02-18T10:46:36;95835.69;;;16.15;27.72
43934;BME280;59081;42.706;23.306;2023-02-18T10:51:57;95768.84;;;16.18;26.44
43934;BME280;59081;42.706;23.306;2023-02-18T10:54:25;95741.00;;;16.00;26.54
43934;BME280;59081;42.706;23.306;2023-02-18T10:56:58;95819.66;;;17.04;26.13
43934;BME280;59081;42.706;23.306;2023-02-18T10:59:25;95766.78;;;16.68;28.40
43934;BME280;59081;42.706;23.306;2023-02-18T11:02:02;95755.66;;;15.91;28.51
43934;BME280;59081;42.706;23.306;2023-02-18T11:04:37;95790.94;;;15.82;26.48
43934;BME280;59081;42.706;23.306;2023-02-18T11:07:13;95770.41;;;15.79;26.67
43934;BME280;59081;42.706;23.306;2023-02-18T11:10:38;95825.91;;;16.50;26.04
43934;BME280;59081;42.706;23.306;2023-02-18T11:13:00;95768.25;;;15.83;31.57
43934;BME280;59081;42.706;23.306;2023-02-18T11:15:28;95699.28;;;14.67;30.16
43934;BME280;59081;42.706;23.306;2023-02-18T11:18:28;95767.38;;;15.55;28.29
43934;BME280;59081;42.706;23.306;2023-02-18T11:20:57;95754.56;;;15.89;29.28
43934;BME280;59081;42.706;23.306;2023-02-18T11:23:22;95699.84;;;15.68;28.12
43934;BME280;59081;42.706;23.306;2023-02-18T11:25:59;95695.31;;;15.21;29.57
43934;BME280;59081;42.706;23.306;2023-02-18T11:28:31;95712.88;;;14.52;30.26
43934;BME280;59081;42.706;23.306;2023-02-18T11:31:01;95764.19;;;16.06;29.69
43934;BME280;59081;42.706;23.306;2023-02-18T11:33:38;95760.22;;;16.25;27.23
43934;BME280;59081;42.706;23.306;2023-02-18T11:38:48;95671.28;;;15.58;27.71
43934;BME280;59081;42.706;23.306;2023-02-18T11:41:17;95719.25;;;16.17;27.13
43934;BME280;59081;42.706;23.306;2023-02-18T11:43:50;95770.94;;;17.00;27.01
43934;BME280;59081;42.706;23.306;2023-02-18T11:46:20;95755.88;;;17.34;26.64
43934;BME280;59081;42.706;23.306;2023-02-18T11:48:46;95689.47;;;17.09;26.03
43934;BME280;59081;42.706;23.306;2023-02-18T11:51:33;95755.00;;;17.19;26.71
43934;BME280;59081;42.706;23.306;2023-02-18T11:54:25;95752.06;;;17.31;26.76
43934;BME280;59081;42.706;23.306;2023-02-18T11:57:06;95712.78;;;17.71;25.58
43934;BME280;59081;42.706;23.306;2023-02-18T11:59:37;95714.25;;;17.91;25.34
43934;BME280;59081;42.706;23.306;2023-02-18T12:05:08;95644.25;;;16.44;27.20
43934;BME280;59081;42.706;23.306;2023-02-18T12:07:46;95726.59;;;17.66;27.06
43934;BME280;59081;42.706;23.306;2023-02-18T12:10:34;95728.19;;;17.91;26.92
43934;BME280;59081;42.706;23.306;2023-02-18T12:13:11;95671.63;;;17.66;26.68
43934;BME280;59081;42.706;23.306;2023-02-18T12:24:22;95633.50;;;16.97;27.86
43934;BME280;59081;42.706;23.306;2023-02-18T12:27:18;95717.75;;;17.67;27.91
43934;BME280;59081;42.706;23.306;2023-02-18T12:43:56;95637.97;;;18.03;26.79
43934;BME280;59081;42.706;23.306;2023-02-18T12:47:36;95672.44;;;18.62;26.27
43934;BME280;59081;42.706;23.306;2023-02-18T12:55:30;95644.63;;;18.29;25.25
43934;BME280;59081;42.706;23.306;2023-02-18T13:12:11;95667.81;;;18.74;25.21
43934;BME280;59081;42.706;23.306;2023-02-18T13:14:49;95607.81;;;18.40;25.57
43934;BME280;59081;42.706;23.306;2023-02-18T13:17:23;95605.19;;;18.36;25.90
43934;BME280;59081;42.706;23.306;2023-02-18T13:20:02;95614.03;;;18.59;26.13
43934;BME280;59081;42.706;23.306;2023-02-18T13:22:29;95564.84;;;18.47;26.14
43934;BME280;59081;42.706;23.306;2023-02-18T13:24:57;95576.38;;;18.54;26.46
43934;BME280;59081;42.706;23.306;2023-02-18T13:27:36;95607.28;;;17.64;27.24
43934;BME280;59081;42.706;23.306;2023-02-18T13:37:55;95588.28;;;16.60;29.36
43934;BME280;59081;42.706;23.306;2023-02-18T13:40:29;95648.56;;;16.73;29.31
43934;BME280;59081;42.706;23.306;2023-02-18T13:43:31;95658.91;;;16.08;30.65
43934;BME280;59081;42.706;23.306;2023-02-18T13:46:17;95617.63;;;15.79;30.82
43934;BME280;59081;42.706;23.306;2023-02-18T13:51:15;95589.84;;;15.70;30.85
43934;BME280;59081;42.706;23.306;2023-02-18T13:53:49;95578.50;;;15.46;30.99
43934;BME280;59081;42.706;23.306;2023-02-18T13:58:50;95582.16;;;14.54;32.44
43934;BME280;59081;42.706;23.306;2023-02-18T14:01:42;95592.41;;;14.75;32.51
43934;BME280;59081;42.706;23.306;2023-02-18T14:09:56;95580.72;;;14.49;32.51
43934;BME280;59081;42.706;23.306;2023-02-18T14:12:25;95515.69;;;13.76;33.42
43934;BME280;59081;42.706;23.306;2023-02-18T14:14:59;95557.44;;;14.03;33.04
43934;BME280;59081;42.706;23.306;2023-02-18T14:17:39;95570.19;;;14.22;32.96
43934;BME280;59081;42.706;23.306;2023-02-18T14:22:42;95626.78;;;14.34;33.57
43934;BME280;59081;42.706;23.306;2023-02-18T14:27:43;95562.09;;;13.72;34.07
43934;BME280;59081;42.706;23.306;2023-02-18T14:30:19;95545.59;;;13.81;33.79
43934;BME280;59081;42.706;23.306;2023-02-18T14:32:50;95559.63;;;13.86;33.71
43934;BME280;59081;42.706;23.306;2023-02-18T14:49:35;95666.44;;;13.75;36.15
43934;BME280;59081;42.706;23.306;2023-02-18T14:52:03;95550.84;;;13.19;35.89
43934;BME280;59081;42.706;23.306;2023-02-18T14:54:30;95547.63;;;13.08;36.08
43934;BME280;59081;42.706;23.306;2023-02-18T14:57:05;95524.06;;;12.65;36.60
43934;BME280;59081;42.706;23.306;2023-02-18T14:59:40;95644.78;;;13.95;35.97
43934;BME280;59081;42.706;23.306;2023-02-18T15:02:23;95649.84;;;13.62;36.51
43934;BME280;59081;42.706;23.306;2023-02-18T15:04:52;95592.88;;;13.14;36.72
43934;BME280;59081;42.706;23.306;2023-02-18T15:07:19;95664.03;;;13.64;36.50
43934;BME280;59081;42.706;23.306;2023-02-18T15:09:52;95642.34;;;13.37;36.81
43934;BME280;59081;42.706;23.306;2023-02-18T15:12:21;95560.00;;;12.40;37.40
43934;BME280;59081;42.706;23.306;2023-02-18T15:14:50;95546.84;;;12.69;36.81
43934;BME280;59081;42.706;23.306;2023-02-18T15:17:19;95621.19;;;12.93;37.57
43934;BME280;59081;42.706;23.306;2023-02-18T15:19:55;95556.38;;;12.14;38.06
43934;BME280;59081;42.706;23.306;2023-02-18T15:22:25;95543.19;;;12.47;37.89
43934;BME280;59081;42.706;23.306;2023-02-18T15:24:53;95606.25;;;12.90;37.47
43934;BME280;59081;42.706;23.306;2023-02-18T15:27:42;95545.38;;;12.27;37.94
43934;BME280;59081;42.706;23.306;2023-02-18T15:32:56;95503.81;;;12.05;38.25
43934;BME280;59081;42.706;23.306;2023-02-18T15:35:28;95550.09;;;12.13;38.71
43934;BME280;59081;42.706;23.306;2023-02-18T15:37:58;95543.41;;;12.27;39.02
43934;BME280;59081;42.706;23.306;2023-02-18T15:40:30;95639.56;;;13.12;38.56
43934;BME280;59081;42.706;23.306;2023-02-18T15:42:59;95641.41;;;12.89;38.85
43934;BME280;59081;42.706;23.306;2023-02-18T15:45:37;95598.88;;;12.33;39.53
43934;BME280;59081;42.706;23.306;2023-02-18T15:48:31;95560.59;;;12.18;39.75
43934;BME280;59081;42.706;23.306;2023-02-18T15:51:05;95527.88;;;12.04;39.47
43934;BME280;59081;42.706;23.306;2023-02-18T15:53:37;95632.34;;;12.76;39.61
43934;BME280;59081;42.706;23.306;2023-02-18T15:56:09;95556.44;;;12.27;39.43
43934;BME280;59081;42.706;23.306;2023-02-18T15:58:35;95541.75;;;11.88;40.73